Terminal Aerodrome Forecast
Issued by NWS Cleveland, OH

Home | Current Version | Previous Version | Text Only | Print | Product List | Glossary Off
Versions: 1 2 3 4 5 6 7 8 9 10 11 12 13 14 15 16 17 18 19 20 21 22 23 24 25

000
FTUS41 KCLE 170500 CCA
TAFTOL
TAF COR
KTOL 170552Z 1706/1806 24003KT 5SM BR BKN035
     FM170700 25003KT 2SM BR SCT040
      TEMPO 1709/1712 3/4SM BR
     FM171300 33005KT P6SM SCT010
     FM180000 21004KT P6SM SKC=

USA.gov is the U.S. government's official web portal to all federal, state and local government web resources and services.